Terminal Aerodrome Forecast
Issued by NWS

Home | Current Version | Previous Version | Text Only | Print | Product List | Glossary On
Versions: 1 2 3 4 5 6 7 8 9 10 11 12 13 14 15 16 17 18 19 20 21 22
347
FTUS46 KSEW 100706 AAA
TAFCLM
TAF AMD
KCLM 100706Z 1007/1106 VRB05KT P6SM SCT035 BKN060 BKN100
      TEMPO 1007/1009 -SHRASN BKN035 OVC060
     FM101800 VRB05KT P6SM -RA SCT018 OVC035
      TEMPO 1020/1024 4SM -RA BR BKN018 OVC030
     FM110000 29005KT P6SM -SHRA BKN018 OVC035
     FM110300 25007KT P6SM -SHRA BKN018 OVC035=

USA.gov is the U.S. government's official web portal to all federal, state and local government web resources and services.